Caribe Alliance — WDC9383 — position and weather

sailwx.info

Track history (hours):
 
Tides and Currents Weather Stations Pressure Air Temp Water Temp Dewpoint Dewpoint Depression Visibility Wind Speed Wind Dir Waves Ship Positions

Caribe Alliance

Owner: Gulf Caribe Maritime, Redondo Beach, CA. More information available from US FCC via Universal Licensing System and Coast Guard Vessel Documentation Center.

Last reported at 2016-Jun-28 14:30 UTC. Time now 2016-Jun-29 20:08 UTC.
Position N 33°51' W 118°24'.

Length 19 m; draft 3.3 m.

Type: Port tender. MMSI: 367101530.

Date/timePositionNaut miles runAvg speedWind from/ knotsBaromVisibWave heightAir tempDewpointWater temp
2016-Jun-28 14:30N 33°51' W 118°24'0 0.0
2016-Jun-28 12:33N 33°51' W 118°24'0 0.0
2016-Jun-28 11:30N 33°51' W 118°24'0 0.0
2016-Jun-28 10:33N 33°51' W 118°24'0 0.0
2016-Jun-28 09:30N 33°51' W 118°24'0 0.0
2016-Jun-28 07:09N 33°51' W 118°24'0 0.0
2016-Jun-28 06:27N 33°51' W 118°24'0 0.0
2016-Jun-28 01:21N 33°51' W 118°24'0 0.0
2016-Jun-28 00:24N 33°51' W 118°24'0 0.0
2016-Jun-27 23:18N 33°51' W 118°24'0 0.1
2016-Jun-27 22:33N 33°51' W 118°23'0 0.0
2016-Jun-27 21:33N 33°51' W 118°24'0 0.0
2016-Jun-27 20:33N 33°51' W 118°24'0 0.0
2016-Jun-27 13:21N 33°51' W 118°24'0 0.0
2016-Jun-27 12:15N 33°51' W 118°24'0 0.0
2016-Jun-27 11:33N 33°51' W 118°24'0 0.0
2016-Jun-27 10:30N 33°51' W 118°24'0 0.0
2016-Jun-27 09:30N 33°51' W 118°24'0 0.0
2016-Jun-27 08:15N 33°51' W 118°24'0 0.0
2016-Jun-27 06:33N 33°51' W 118°24'0 0.0
2016-Jun-27 05:33N 33°51' W 118°24'0 0.0
2016-Jun-27 01:27N 33°51' W 118°24'0 0.0
2016-Jun-27 00:33N 33°51' W 118°24'0 0.0
2016-Jun-26 23:30N 33°51' W 118°24'0 0.0
2016-Jun-26 22:21N 33°51' W 118°24'0 0.0
2016-Jun-26 21:21N 33°51' W 118°24'0 0.0
2016-Jun-26 20:21N 33°51' W 118°24'0 0.0
2016-Jun-26 12:15N 33°51' W 118°24'0 0.0
2016-Jun-26 11:33N 33°51' W 118°24'0 0.0
2016-Jun-26 10:33N 33°51' W 118°24'0 0.0
2016-Jun-26 09:33N 33°51' W 118°24'0 0.0
2016-Jun-26 08:18N 33°51' W 118°24'0 0.0
2016-Jun-26 07:30N 33°51' W 118°24'0 0.0
2016-Jun-26 04:33N 33°51' W 118°24'0 0.0
2016-Jun-26 02:03N 33°51' W 118°24'0 0.0
2016-Jun-26 01:03N 33°51' W 118°24'0 0.0
2016-Jun-26 00:33N 33°51' W 118°24'5 5.2
2016-Jun-25 23:33N 33°55' W 118°27'0 0.0
2016-Jun-25 22:33N 33°55' W 118°27'0 0.2
2016-Jun-25 20:18N 33°54' W 118°27'0 0.0
2016-Jun-25 19:24N 33°54' W 118°27'0 0.0
2016-Jun-25 18:27N 33°54' W 118°27'0 0.0
2016-Jun-25 17:30N 33°54' W 118°27'0 0.0
2016-Jun-25 14:27N 33°54' W 118°27'0 0.0
2016-Jun-25 13:33N 33°54' W 118°27'0 0.0
2016-Jun-25 12:33N 33°54' W 118°27'0 0.0
2016-Jun-25 11:33N 33°54' W 118°27'0 0.0
2016-Jun-25 10:33N 33°54' W 118°27'0 0.0
2016-Jun-25 09:33N 33°54' W 118°27'0 0.0
2016-Jun-25 08:33N 33°54' W 118°27'0 0.0
2016-Jun-25 07:33N 33°54' W 118°27'0 0.0
2016-Jun-25 06:33N 33°54' W 118°27'0 0.0
2016-Jun-25 05:33N 33°54' W 118°27'0 0.0
2016-Jun-25 04:33N 33°54' W 118°27'0 0.0
2016-Jun-25 03:33N 33°54' W 118°27'0 0.0
2016-Jun-24 22:12N 33°54' W 118°27'0 0.0
2016-Jun-24 20:30N 33°54' W 118°27'0 0.0
2016-Jun-24 19:30N 33°54' W 118°27'0 0.0
2016-Jun-24 18:18N 33°54' W 118°27'0 0.0
2016-Jun-24 17:33N 33°54' W 118°27'0 0.3
2016-Jun-24 16:32N 33°55' W 118°27'0 0.3
2016-Jun-24 15:33N 33°55' W 118°27'1 0.5
2016-Jun-24 14:33N 33°54' W 118°27'3 3.2
2016-Jun-24 13:34N 33°52' W 118°25'2 1.6
2016-Jun-24 12:30N 33°51' W 118°24'0 0.0
2016-Jun-24 11:29N 33°51' W 118°24'0 0.0
2016-Jun-24 10:32N 33°51' W 118°24'0 0.0
2016-Jun-24 09:29N 33°51' W 118°24'0 0.0
2016-Jun-24 08:32N 33°51' W 118°24'0 0.0
2016-Jun-24 07:32N 33°51' W 118°24'0 0.0
2016-Jun-24 04:29N 33°51' W 118°24'0 0.0
2016-Jun-24 03:32N 33°51' W 118°24'0 0.0
2016-Jun-24 02:32N 33°51' W 118°24'0 0.0
2016-Jun-24 01:29N 33°51' W 118°24'0 0.0
2016-Jun-23 19:19N 33°51' W 118°24'5 5.4
2016-Jun-23 18:21N 33°55' W 118°27'0 0.2
2016-Jun-23 17:32N 33°55' W 118°27'0 0.2
2016-Jun-23 16:33N 33°55' W 118°27'0 0.2
2016-Jun-23 15:33N 33°55' W 118°27'0 0.4
2016-Jun-23 14:31N 33°54' W 118°27'0 0.0
2016-Jun-23 13:31N 33°54' W 118°27'0 0.0
2016-Jun-23 12:31N 33°54' W 118°27'0 0.0
2016-Jun-23 11:31N 33°54' W 118°27'0 0.0
2016-Jun-23 10:31N 33°54' W 118°27'0 0.0
2016-Jun-23 09:25N 33°54' W 118°27'0 0.1
2016-Jun-23 08:31N 33°54' W 118°27'0 0.1
2016-Jun-23 07:31N 33°54' W 118°27'0 0.0
2016-Jun-23 05:31N 33°54' W 118°27'0 0.0
2016-Jun-23 04:31N 33°54' W 118°27'0 0.0
2016-Jun-23 03:28N 33°54' W 118°27'0 0.0
2016-Jun-23 02:25N 33°54' W 118°27'0 0.0
2016-Jun-23 01:16N 33°54' W 118°27'0 0.0
2016-Jun-23 00:22N 33°54' W 118°27'0 0.0
2016-Jun-22 23:31N 33°54' W 118°27'0 0.0
2016-Jun-22 22:31N 33°54' W 118°27'0 0.0
2016-Jun-22 21:28N 33°54' W 118°27'0 0.0
2016-Jun-22 20:16N 33°54' W 118°27'0 0.0
2016-Jun-22 19:22N 33°54' W 118°27'0 0.0
2016-Jun-22 18:17N 33°54' W 118°27'0 0.4
2016-Jun-22 17:33N 33°55' W 118°27'0 0.1
2016-Jun-22 16:33N 33°55' W 118°27'0 0.3
2016-Jun-22 15:34N 33°55' W 118°27'0 0.2
2016-Jun-22 14:33N 33°55' W 118°27'0 0.2
2016-Jun-22 13:34N 33°55' W 118°27'3 3.4
2016-Jun-22 12:34N 33°52' W 118°26'2 0.3
2016-Jun-22 06:17N 33°51' W 118°24'1 0.1
2016-Jun-21 21:33N 33°51' W 118°24'1 0.6
2016-Jun-21 20:29N 33°51' W 118°24'0 0.0
2016-Jun-21 19:26N 33°51' W 118°24'0 0.0
2016-Jun-21 18:32N 33°51' W 118°24'0 0.0
2016-Jun-21 17:26N 33°51' W 118°24'0 0.0
2016-Jun-21 16:32N 33°51' W 118°24'0 0.0
2016-Jun-21 14:26N 33°51' W 118°24'0 0.0
2016-Jun-21 10:14N 33°51' W 118°24'0 0.0
2016-Jun-21 09:26N 33°51' W 118°24'0 0.0
2016-Jun-21 08:32N 33°51' W 118°24'0 0.0
2016-Jun-21 03:29N 33°51' W 118°24'0 0.0
2016-Jun-21 02:26N 33°51' W 118°24'0 0.0
2016-Jun-21 01:26N 33°51' W 118°24'0 0.1
2016-Jun-20 17:32N 33°51' W 118°24'0 0.4
2016-Jun-20 16:29N 33°51' W 118°24'0 0.0
2016-Jun-20 14:21N 33°51' W 118°24'5 6.1
2016-Jun-20 13:33N 33°54' W 118°27'0 0.1
2016-Jun-20 12:33N 33°54' W 118°27'0 0.1
2016-Jun-20 11:33N 33°54' W 118°27'0 0.3
2016-Jun-20 10:32N 33°54' W 118°27'0 0.0
2016-Jun-20 09:32N 33°54' W 118°27'0 0.0
2016-Jun-20 08:32N 33°54' W 118°27'0 0.0
2016-Jun-20 07:32N 33°54' W 118°27'0 0.0
2016-Jun-20 06:32N 33°54' W 118°27'0 0.0
2016-Jun-20 05:20N 33°54' W 118°27'0 0.0
2016-Jun-20 04:32N 33°54' W 118°27'0 0.0
2016-Jun-20 03:32N 33°54' W 118°27'0 0.0
2016-Jun-20 02:32N 33°54' W 118°27'0 0.0
2016-Jun-20 01:32N 33°54' W 118°27'0 0.0
2016-Jun-20 00:29N 33°54' W 118°27'0 0.0
2016-Jun-19 23:32N 33°54' W 118°27'  
Track history (hours):
 
Tides and Currents Weather Stations Pressure Air Temp Water Temp Dewpoint Dewpoint Depression Visibility Wind Speed Wind Dir Waves Ship Positions

Caribe Alliance

Owner: Gulf Caribe Maritime, Redondo Beach, CA. More information available from US FCC via Universal Licensing System and Coast Guard Vessel Documentation Center.

Last reported at 2016-Jun-28 14:30 UTC. Time now 2016-Jun-29 20:08 UTC.
Position N 33°51' W 118°24'.

Length 19 m; draft 3.3 m.

Type: Port tender. MMSI: 367101530.

Date/timePositionNaut miles runAvg speedWind from/ knotsBaromVisibWave heightAir tempDewpointWater temp
2016-Jun-28 14:30N 33°51' W 118°24'0 0.0
2016-Jun-28 12:33N 33°51' W 118°24'0 0.0
2016-Jun-28 11:30N 33°51' W 118°24'0 0.0
2016-Jun-28 10:33N 33°51' W 118°24'0 0.0
2016-Jun-28 09:30N 33°51' W 118°24'0 0.0
2016-Jun-28 07:09N 33°51' W 118°24'0 0.0
2016-Jun-28 06:27N 33°51' W 118°24'0 0.0
2016-Jun-28 01:21N 33°51' W 118°24'0 0.0
2016-Jun-28 00:24N 33°51' W 118°24'0 0.0
2016-Jun-27 23:18N 33°51' W 118°24'0 0.1
2016-Jun-27 22:33N 33°51' W 118°23'0 0.0
2016-Jun-27 21:33N 33°51' W 118°24'0 0.0
2016-Jun-27 20:33N 33°51' W 118°24'0 0.0
2016-Jun-27 13:21N 33°51' W 118°24'0 0.0
2016-Jun-27 12:15N 33°51' W 118°24'0 0.0
2016-Jun-27 11:33N 33°51' W 118°24'0 0.0
2016-Jun-27 10:30N 33°51' W 118°24'0 0.0
2016-Jun-27 09:30N 33°51' W 118°24'0 0.0
2016-Jun-27 08:15N 33°51' W 118°24'0 0.0
2016-Jun-27 06:33N 33°51' W 118°24'0 0.0
2016-Jun-27 05:33N 33°51' W 118°24'0 0.0
2016-Jun-27 01:27N 33°51' W 118°24'0 0.0
2016-Jun-27 00:33N 33°51' W 118°24'0 0.0
2016-Jun-26 23:30N 33°51' W 118°24'0 0.0
2016-Jun-26 22:21N 33°51' W 118°24'0 0.0
2016-Jun-26 21:21N 33°51' W 118°24'0 0.0
2016-Jun-26 20:21N 33°51' W 118°24'0 0.0
2016-Jun-26 12:15N 33°51' W 118°24'0 0.0
2016-Jun-26 11:33N 33°51' W 118°24'0 0.0
2016-Jun-26 10:33N 33°51' W 118°24'0 0.0
2016-Jun-26 09:33N 33°51' W 118°24'0 0.0
2016-Jun-26 08:18N 33°51' W 118°24'0 0.0
2016-Jun-26 07:30N 33°51' W 118°24'0 0.0
2016-Jun-26 04:33N 33°51' W 118°24'0 0.0
2016-Jun-26 02:03N 33°51' W 118°24'0 0.0
2016-Jun-26 01:03N 33°51' W 118°24'0 0.0
2016-Jun-26 00:33N 33°51' W 118°24'5 5.2
2016-Jun-25 23:33N 33°55' W 118°27'0 0.0
2016-Jun-25 22:33N 33°55' W 118°27'0 0.2
2016-Jun-25 20:18N 33°54' W 118°27'0 0.0
2016-Jun-25 19:24N 33°54' W 118°27'0 0.0
2016-Jun-25 18:27N 33°54' W 118°27'0 0.0
2016-Jun-25 17:30N 33°54' W 118°27'0 0.0
2016-Jun-25 14:27N 33°54' W 118°27'0 0.0
2016-Jun-25 13:33N 33°54' W 118°27'0 0.0
2016-Jun-25 12:33N 33°54' W 118°27'0 0.0
2016-Jun-25 11:33N 33°54' W 118°27'0 0.0
2016-Jun-25 10:33N 33°54' W 118°27'0 0.0
2016-Jun-25 09:33N 33°54' W 118°27'0 0.0
2016-Jun-25 08:33N 33°54' W 118°27'0 0.0
2016-Jun-25 07:33N 33°54' W 118°27'0 0.0
2016-Jun-25 06:33N 33°54' W 118°27'0 0.0
2016-Jun-25 05:33N 33°54' W 118°27'0 0.0
2016-Jun-25 04:33N 33°54' W 118°27'0 0.0
2016-Jun-25 03:33N 33°54' W 118°27'0 0.0
2016-Jun-24 22:12N 33°54' W 118°27'0 0.0
2016-Jun-24 20:30N 33°54' W 118°27'0 0.0
2016-Jun-24 19:30N 33°54' W 118°27'0 0.0
2016-Jun-24 18:18N 33°54' W 118°27'0 0.0
2016-Jun-24 17:33N 33°54' W 118°27'0 0.3
2016-Jun-24 16:32N 33°55' W 118°27'0 0.3
2016-Jun-24 15:33N 33°55' W 118°27'1 0.5
2016-Jun-24 14:33N 33°54' W 118°27'3 3.2
2016-Jun-24 13:34N 33°52' W 118°25'2 1.6
2016-Jun-24 12:30N 33°51' W 118°24'0 0.0
2016-Jun-24 11:29N 33°51' W 118°24'0 0.0
2016-Jun-24 10:32N 33°51' W 118°24'0 0.0
2016-Jun-24 09:29N 33°51' W 118°24'0 0.0
2016-Jun-24 08:32N 33°51' W 118°24'0 0.0
2016-Jun-24 07:32N 33°51' W 118°24'0 0.0
2016-Jun-24 04:29N 33°51' W 118°24'0 0.0
2016-Jun-24 03:32N 33°51' W 118°24'0 0.0
2016-Jun-24 02:32N 33°51' W 118°24'0 0.0
2016-Jun-24 01:29N 33°51' W 118°24'0 0.0
2016-Jun-23 19:19N 33°51' W 118°24'5 5.4
2016-Jun-23 18:21N 33°55' W 118°27'0 0.2
2016-Jun-23 17:32N 33°55' W 118°27'0 0.2
2016-Jun-23 16:33N 33°55' W 118°27'0 0.2
2016-Jun-23 15:33N 33°55' W 118°27'0 0.4
2016-Jun-23 14:31N 33°54' W 118°27'0 0.0
2016-Jun-23 13:31N 33°54' W 118°27'0 0.0
2016-Jun-23 12:31N 33°54' W 118°27'0 0.0
2016-Jun-23 11:31N 33°54' W 118°27'0 0.0
2016-Jun-23 10:31N 33°54' W 118°27'0 0.0
2016-Jun-23 09:25N 33°54' W 118°27'0 0.1
2016-Jun-23 08:31N 33°54' W 118°27'0 0.1
2016-Jun-23 07:31N 33°54' W 118°27'0 0.0
2016-Jun-23 05:31N 33°54' W 118°27'0 0.0
2016-Jun-23 04:31N 33°54' W 118°27'0 0.0
2016-Jun-23 03:28N 33°54' W 118°27'0 0.0
2016-Jun-23 02:25N 33°54' W 118°27'0 0.0
2016-Jun-23 01:16N 33°54' W 118°27'0 0.0
2016-Jun-23 00:22N 33°54' W 118°27'0 0.0
2016-Jun-22 23:31N 33°54' W 118°27'0 0.0
2016-Jun-22 22:31N 33°54' W 118°27'0 0.0
2016-Jun-22 21:28N 33°54' W 118°27'0 0.0
2016-Jun-22 20:16N 33°54' W 118°27'0 0.0
2016-Jun-22 19:22N 33°54' W 118°27'0 0.0
2016-Jun-22 18:17N 33°54' W 118°27'0 0.4
2016-Jun-22 17:33N 33°55' W 118°27'0 0.1
2016-Jun-22 16:33N 33°55' W 118°27'0 0.3
2016-Jun-22 15:34N 33°55' W 118°27'0 0.2
2016-Jun-22 14:33N 33°55' W 118°27'0 0.2
2016-Jun-22 13:34N 33°55' W 118°27'3 3.4
2016-Jun-22 12:34N 33°52' W 118°26'2 0.3
2016-Jun-22 06:17N 33°51' W 118°24'1 0.1
2016-Jun-21 21:33N 33°51' W 118°24'1 0.6
2016-Jun-21 20:29N 33°51' W 118°24'0 0.0
2016-Jun-21 19:26N 33°51' W 118°24'0 0.0
2016-Jun-21 18:32N 33°51' W 118°24'0 0.0
2016-Jun-21 17:26N 33°51' W 118°24'0 0.0
2016-Jun-21 16:32N 33°51' W 118°24'0 0.0
2016-Jun-21 14:26N 33°51' W 118°24'0 0.0
2016-Jun-21 10:14N 33°51' W 118°24'0 0.0
2016-Jun-21 09:26N 33°51' W 118°24'0 0.0
2016-Jun-21 08:32N 33°51' W 118°24'0 0.0
2016-Jun-21 03:29N 33°51' W 118°24'0 0.0
2016-Jun-21 02:26N 33°51' W 118°24'0 0.0
2016-Jun-21 01:26N 33°51' W 118°24'0 0.1
2016-Jun-20 17:32N 33°51' W 118°24'0 0.4
2016-Jun-20 16:29N 33°51' W 118°24'0 0.0
2016-Jun-20 14:21N 33°51' W 118°24'5 6.1
2016-Jun-20 13:33N 33°54' W 118°27'0 0.1
2016-Jun-20 12:33N 33°54' W 118°27'0 0.1
2016-Jun-20 11:33N 33°54' W 118°27'0 0.3
2016-Jun-20 10:32N 33°54' W 118°27'0 0.0
2016-Jun-20 09:32N 33°54' W 118°27'0 0.0
2016-Jun-20 08:32N 33°54' W 118°27'0 0.0
2016-Jun-20 07:32N 33°54' W 118°27'0 0.0
2016-Jun-20 06:32N 33°54' W 118°27'0 0.0
2016-Jun-20 05:20N 33°54' W 118°27'0 0.0
2016-Jun-20 04:32N 33°54' W 118°27'0 0.0
2016-Jun-20 03:32N 33°54' W 118°27'0 0.0
2016-Jun-20 02:32N 33°54' W 118°27'0 0.0
2016-Jun-20 01:32N 33°54' W 118°27'0 0.0
2016-Jun-20 00:29N 33°54' W 118°27'0 0.0
2016-Jun-19 23:32N 33°54' W 118°27'  

Dump ship's entire track history